createdAt,value
2018-10-18T00:00:08.413Z,50.87
2018-10-18T00:02:37.905Z,54.03
2018-10-18T00:05:08.398Z,52.50
2018-10-18T00:07:38.108Z,51.27
2018-10-18T00:10:08.567Z,50.63
2018-10-18T00:12:38.257Z,50.93
2018-10-18T00:15:08.494Z,49.70
2018-10-18T00:17:43.282Z,49.87
2018-10-18T00:20:13.091Z,50.03
2018-10-18T00:22:43.800Z,52.47
2018-10-18T00:25:13.498Z,47.13
2018-10-18T00:27:43.037Z,49.03
2018-10-18T00:30:13.908Z,52.40
2018-10-18T00:32:44.315Z,57.83
2018-10-18T00:35:13.882Z,48.30
2018-10-18T00:37:43.890Z,55.27
2018-10-18T00:40:13.641Z,57.90
2018-10-18T00:42:43.360Z,54.20
2018-10-18T00:45:12.889Z,54.23
2018-10-18T00:47:42.470Z,60.03
2018-10-18T00:50:12.682Z,59.80
2018-10-18T00:52:42.207Z,58.80
2018-10-18T00:55:12.293Z,62.20
2018-10-18T00:57:42.416Z,51.30
2018-10-18T01:00:12.571Z,66.07
2018-10-18T01:02:42.194Z,60.37
2018-10-18T01:05:11.794Z,67.83
2018-10-18T01:07:41.372Z,52.43
2018-10-18T01:10:10.956Z,57.30
2018-10-18T01:12:40.612Z,53.80
2018-10-18T01:15:10.283Z,55.20
2018-10-18T01:17:39.827Z,57.77
2018-10-18T01:20:09.515Z,57.90
2018-10-18T01:22:39.337Z,54.00
2018-10-18T01:25:08.906Z,55.20
2018-10-18T01:27:38.435Z,55.30
2018-10-18T01:30:08.117Z,56.10
2018-10-18T01:32:37.704Z,59.93
2018-10-18T01:35:07.488Z,60.43
2018-10-18T01:37:37.090Z,64.00
2018-10-18T01:40:06.659Z,60.17
2018-10-18T01:42:36.232Z,64.87
2018-10-18T01:45:06.210Z,60.63
2018-10-18T01:47:35.841Z,61.60
2018-10-18T01:50:06.500Z,60.87
2018-10-18T01:52:36.012Z,64.63
2018-10-18T01:55:06.486Z,59.97
2018-10-18T01:57:36.017Z,61.40
2018-10-18T02:00:06.825Z,63.70
2018-10-18T02:02:36.466Z,56.27
2018-10-18T02:05:06.513Z,59.27
2018-10-18T02:07:36.034Z,56.23
2018-10-18T02:10:06.298Z,54.13
2018-10-18T02:12:35.840Z,55.03
2018-10-18T02:15:05.476Z,57.03
2018-10-18T02:17:35.005Z,62.97
2018-10-18T02:20:05.000Z,56.30
2018-10-18T02:22:34.584Z,64.37
2018-10-18T02:25:04.259Z,53.50
2018-10-18T02:27:33.874Z,64.60
2018-10-18T02:30:03.492Z,56.23
2018-10-18T02:32:33.042Z,50.43
2018-10-18T02:35:02.660Z,53.30
2018-10-18T02:37:32.218Z,51.13
2018-10-18T02:40:01.994Z,52.57
2018-10-18T02:42:31.541Z,56.53
2018-10-18T02:45:01.063Z,55.00
2018-10-18T02:47:30.618Z,49.07
2018-10-18T02:50:00.259Z,54.97
2018-10-18T02:52:29.825Z,51.07
2018-10-18T02:54:59.334Z,54.90
2018-10-18T02:57:28.883Z,53.07
2018-10-18T02:59:58.509Z,54.07
2018-10-18T03:02:28.042Z,50.90
2018-10-18T03:04:57.604Z,55.00
2018-10-18T03:07:27.197Z,51.17
2018-10-18T03:09:56.820Z,51.60
2018-10-18T03:12:26.399Z,50.00
2018-10-18T03:14:56.012Z,52.47
2018-10-18T03:17:25.568Z,53.90
2018-10-18T03:19:55.097Z,46.17
2018-10-18T03:22:24.728Z,51.03
2018-10-18T03:24:54.277Z,49.47
2018-10-18T03:27:23.892Z,52.73
2018-10-18T03:29:53.793Z,51.43
2018-10-18T03:32:23.959Z,51.17
2018-10-18T03:34:53.552Z,49.30
2018-10-18T03:37:23.133Z,51.10
2018-10-18T03:39:52.720Z,52.27
2018-10-18T03:42:22.344Z,49.50
2018-10-18T03:44:51.971Z,47.93
2018-10-18T03:47:21.567Z,49.57
2018-10-18T03:49:51.317Z,49.83
2018-10-18T03:52:20.899Z,48.53
2018-10-18T03:54:50.475Z,49.53
2018-10-18T03:57:20.084Z,48.30
2018-10-18T03:59:49.775Z,49.60
2018-10-18T04:02:19.392Z,44.93
2018-10-18T04:04:49.001Z,47.97
2018-10-18T04:07:18.625Z,49.47
2018-10-18T04:09:48.241Z,47.53
2018-10-18T04:12:17.925Z,44.20
2018-10-18T04:14:47.519Z,48.57
2018-10-18T04:17:17.150Z,48.63
2018-10-18T04:19:46.973Z,46.13
2018-10-18T04:22:16.543Z,47.77
2018-10-18T04:24:46.196Z,46.43
2018-10-18T04:27:15.819Z,47.50
2018-10-18T04:29:45.533Z,45.63
2018-10-18T04:32:15.170Z,45.60
2018-10-18T04:34:44.737Z,46.57
2018-10-18T04:37:14.440Z,45.53
2018-10-18T04:39:44.031Z,43.40
2018-10-18T04:42:13.696Z,41.97
2018-10-18T04:44:43.216Z,40.27
2018-10-18T04:47:12.822Z,39.63
2018-10-18T04:49:42.382Z,40.60
2018-10-18T04:52:11.943Z,39.83
2018-10-18T04:54:41.491Z,40.03
2018-10-18T04:57:11.122Z,39.13
2018-10-18T04:59:40.689Z,39.73
2018-10-18T05:02:10.319Z,39.20
2018-10-18T05:04:39.875Z,38.80
2018-10-18T05:07:09.493Z,36.57
2018-10-18T05:09:39.082Z,36.60
2018-10-18T05:12:08.734Z,38.70
2018-10-18T05:14:38.323Z,36.70
2018-10-18T05:17:07.906Z,37.43
2018-10-18T05:19:37.509Z,37.17
2018-10-18T05:22:07.160Z,38.93
2018-10-18T05:24:36.863Z,34.10
2018-10-18T05:27:06.548Z,35.77
2018-10-18T05:29:36.500Z,36.50
2018-10-18T05:32:06.791Z,37.10
2018-10-18T05:34:36.351Z,35.40
2018-10-18T05:37:06.298Z,36.13
2018-10-18T05:39:36.105Z,34.60
2018-10-18T05:42:05.809Z,34.33
2018-10-18T05:44:35.771Z,35.30
2018-10-18T05:47:05.816Z,35.40
2018-10-18T05:49:35.414Z,34.73
2018-10-18T05:52:05.482Z,32.87
2018-10-18T05:54:35.036Z,33.33
2018-10-18T05:57:04.751Z,35.17
2018-10-18T05:59:34.399Z,34.23
2018-10-18T06:02:04.145Z,33.37
2018-10-18T06:04:33.881Z,34.47
2018-10-18T06:07:03.613Z,33.73
2018-10-18T06:09:34.464Z,32.03
2018-10-18T06:12:04.404Z,33.53
2018-10-18T06:14:34.028Z,30.27
2018-10-18T06:17:03.594Z,32.47
2018-10-18T06:19:33.270Z,31.07
2018-10-18T06:22:02.871Z,31.47
2018-10-18T06:24:32.509Z,32.37
2018-10-18T06:27:02.185Z,29.90
2018-10-18T06:29:31.786Z,32.97
2018-10-18T06:32:01.654Z,30.27
2018-10-18T06:34:31.264Z,32.90
2018-10-18T06:37:00.906Z,31.17
2018-10-18T06:39:30.485Z,31.87
2018-10-18T06:42:00.209Z,32.50
2018-10-18T06:44:30.023Z,31.43
2018-10-18T06:46:59.750Z,31.80
2018-10-18T06:49:29.435Z,30.30
2018-10-18T06:51:59.086Z,32.03
2018-10-18T06:54:28.686Z,29.93
2018-10-18T06:56:58.270Z,28.97
2018-10-18T06:59:28.136Z,31.13
2018-10-18T07:01:57.759Z,34.27
2018-10-18T07:04:27.382Z,31.40
2018-10-18T07:06:56.947Z,29.87
2018-10-18T07:09:26.636Z,30.53
2018-10-18T07:11:56.204Z,30.33
2018-10-18T07:14:25.898Z,29.80
2018-10-18T07:16:55.543Z,28.57
2018-10-18T07:19:25.180Z,28.67
2018-10-18T07:21:54.908Z,28.53
2018-10-18T07:24:24.519Z,29.23
2018-10-18T07:26:54.242Z,28.50
2018-10-18T07:29:23.810Z,29.00
2018-10-18T07:31:53.450Z,29.03
2018-10-18T07:34:23.411Z,29.30
2018-10-18T07:36:53.079Z,27.33
2018-10-18T07:39:22.716Z,28.73
2018-10-18T07:41:52.410Z,28.70
2018-10-18T07:44:22.079Z,27.67
2018-10-18T07:46:51.736Z,25.53
2018-10-18T07:49:21.340Z,27.67
2018-10-18T07:51:52.570Z,26.10
2018-10-18T07:54:22.635Z,24.40
2018-10-18T07:56:53.270Z,24.53
2018-10-18T07:59:23.072Z,23.93
2018-10-18T08:01:54.740Z,22.63
2018-10-18T08:04:24.744Z,24.37
2018-10-18T08:06:54.468Z,21.83
2018-10-18T08:09:26.236Z,22.23
2018-10-18T08:11:55.905Z,22.40
2018-10-18T08:14:25.590Z,20.43
2018-10-18T08:16:55.547Z,21.40
2018-10-18T08:19:25.082Z,21.03
2018-10-18T08:21:54.941Z,21.33
2018-10-18T08:24:24.586Z,22.60
2018-10-18T08:26:54.167Z,20.77
2018-10-18T08:29:24.046Z,20.40
2018-10-18T08:31:53.775Z,21.20
2018-10-18T08:34:23.402Z,21.23
2018-10-18T08:36:53.084Z,22.97
2018-10-18T08:39:23.941Z,23.87
2018-10-18T08:41:55.487Z,23.67
2018-10-18T08:44:25.227Z,23.60
2018-10-18T08:46:54.829Z,24.20
2018-10-18T08:49:24.504Z,24.30
2018-10-18T08:51:54.416Z,22.80
2018-10-18T08:54:24.241Z,22.40
2018-10-18T08:56:53.866Z,24.23
2018-10-18T08:59:23.792Z,23.37
2018-10-18T09:01:53.334Z,23.70
2018-10-18T09:04:22.992Z,22.17
2018-10-18T09:06:52.754Z,22.40
2018-10-18T09:09:22.405Z,23.17
2018-10-18T09:11:52.326Z,22.17
2018-10-18T09:14:22.013Z,23.07
2018-10-18T09:16:51.752Z,23.47
2018-10-18T09:19:21.457Z,22.87
2018-10-18T09:21:51.596Z,22.20
2018-10-18T09:24:21.307Z,24.20
2018-10-18T09:26:50.929Z,23.20
2018-10-18T09:29:20.809Z,22.53
2018-10-18T09:31:50.824Z,24.13
2018-10-18T09:34:20.376Z,23.77
2018-10-18T09:36:50.168Z,22.97
2018-10-18T09:39:19.775Z,24.80
2018-10-18T09:41:49.481Z,23.97
2018-10-18T09:44:19.360Z,24.03
2018-10-18T09:46:49.042Z,23.73
2018-10-18T09:49:18.804Z,24.03
2018-10-18T09:51:48.346Z,24.30
2018-10-18T09:54:18.203Z,23.23
2018-10-18T09:56:47.844Z,22.77
2018-10-18T09:59:17.486Z,23.20
2018-10-18T10:01:52.245Z,22.13
2018-10-18T10:04:22.299Z,22.77
2018-10-18T10:06:51.965Z,22.50
2018-10-18T10:09:21.940Z,21.63
2018-10-18T10:11:51.612Z,20.40
2018-10-18T10:14:21.287Z,20.00
2018-10-18T10:16:50.949Z,21.73
2018-10-18T10:19:20.650Z,19.63
2018-10-18T10:21:50.254Z,18.40
2018-10-18T10:24:19.984Z,16.57
2018-10-18T10:26:49.641Z,15.33
2018-10-18T10:29:19.378Z,15.53
2018-10-18T10:31:49.139Z,15.27
2018-10-18T10:34:19.265Z,15.93
2018-10-18T10:36:49.177Z,16.90
2018-10-18T10:39:19.224Z,16.33
2018-10-18T10:41:48.839Z,16.83
2018-10-18T10:44:18.567Z,16.83
2018-10-18T10:46:48.240Z,18.30
2018-10-18T10:49:18.008Z,17.57
2018-10-18T10:51:47.613Z,17.83
2018-10-18T10:54:17.432Z,18.53
2018-10-18T10:56:47.077Z,18.77
2018-10-18T10:59:17.907Z,20.93
2018-10-18T11:01:47.647Z,17.10
2018-10-18T11:04:17.298Z,17.27
2018-10-18T11:06:46.985Z,17.17
2018-10-18T11:09:16.752Z,15.87
2018-10-18T11:11:46.675Z,17.57
2018-10-18T11:14:16.665Z,18.00
2018-10-18T11:16:46.401Z,17.87
2018-10-18T11:19:16.309Z,19.93
2018-10-18T11:21:46.564Z,19.23
2018-10-18T11:24:16.282Z,18.50
2018-10-18T11:26:45.925Z,19.57
2018-10-18T11:29:15.650Z,17.83
2018-10-18T11:31:45.381Z,17.63
2018-10-18T11:34:15.109Z,16.30
2018-10-18T11:36:44.882Z,15.40
2018-10-18T11:39:14.607Z,15.83
2018-10-18T11:41:45.428Z,17.20
2018-10-18T11:44:15.340Z,17.07
2018-10-18T11:46:46.184Z,16.70
2018-10-18T11:49:16.030Z,16.50
2018-10-18T11:51:45.963Z,16.13
2018-10-18T11:54:15.569Z,16.80
2018-10-18T11:56:45.274Z,16.20
2018-10-18T11:59:15.016Z,16.10
2018-10-18T12:01:44.684Z,14.87
2018-10-18T12:04:14.588Z,15.40
2018-10-18T12:06:44.348Z,15.40
2018-10-18T12:09:14.124Z,16.33
2018-10-18T12:11:44.053Z,16.13
2018-10-18T12:14:13.745Z,16.27
2018-10-18T12:16:43.353Z,17.90
2018-10-18T12:19:13.183Z,15.90
2018-10-18T12:21:42.758Z,16.23
2018-10-18T12:24:12.459Z,17.77
2018-10-18T12:26:42.222Z,16.97
2018-10-18T12:29:11.889Z,18.10
2018-10-18T12:31:41.617Z,17.47
2018-10-18T12:34:11.355Z,16.30
2018-10-18T12:36:40.974Z,17.17
2018-10-18T12:39:10.862Z,16.97
2018-10-18T12:41:41.099Z,16.37
2018-10-18T12:44:10.765Z,17.00
2018-10-18T12:46:40.433Z,15.60
2018-10-18T12:49:10.352Z,16.40
2018-10-18T12:51:40.040Z,16.50
2018-10-18T12:54:09.821Z,14.43
2018-10-18T12:56:39.568Z,16.13
2018-10-18T12:59:09.713Z,16.17
2018-10-18T13:01:39.356Z,16.37
2018-10-18T13:04:09.219Z,17.37
2018-10-18T13:06:39.001Z,18.13
2018-10-18T13:09:09.588Z,18.37
2018-10-18T13:11:39.414Z,17.43
2018-10-18T13:14:09.540Z,18.20
2018-10-18T13:16:39.353Z,16.73
2018-10-18T13:19:09.314Z,15.40
2018-10-18T13:21:39.277Z,16.63
2018-10-18T13:24:09.033Z,14.97
2018-10-18T13:26:38.885Z,15.77
2018-10-18T13:29:08.975Z,15.47
2018-10-18T13:31:38.903Z,15.37
2018-10-18T13:34:08.989Z,15.90
2018-10-18T13:36:38.546Z,15.93
2018-10-18T13:39:10.004Z,15.40
2018-10-18T13:41:39.591Z,15.50
2018-10-18T13:44:09.614Z,14.90
2018-10-18T13:46:39.827Z,15.07
2018-10-18T13:49:09.571Z,14.73
2018-10-18T13:51:39.240Z,14.03
2018-10-18T13:54:09.020Z,14.17
2018-10-18T13:56:38.863Z,13.13
2018-10-18T13:59:18.339Z,12.73
2018-10-18T14:01:47.956Z,13.37
2018-10-18T14:04:17.634Z,11.73
2018-10-18T14:06:47.356Z,11.83
2018-10-18T14:09:17.035Z,11.30
2018-10-18T14:11:46.683Z,12.03
2018-10-18T14:14:16.366Z,11.00
2018-10-18T14:16:46.072Z,11.60
2018-10-18T14:19:15.899Z,12.20
2018-10-18T14:21:45.634Z,12.03
2018-10-18T14:24:15.524Z,13.17
2018-10-18T14:26:45.252Z,9.77
2018-10-18T14:29:14.954Z,6.93
2018-10-18T14:31:44.553Z,8.10
2018-10-18T14:34:14.186Z,8.90
2018-10-18T14:36:44.042Z,9.70
2018-10-18T14:39:13.979Z,9.60
2018-10-18T14:41:43.667Z,10.27
2018-10-18T14:44:13.343Z,10.57
2018-10-18T14:46:43.037Z,10.43
2018-10-18T14:49:12.930Z,10.93
2018-10-18T14:51:42.609Z,11.17
2018-10-18T14:54:12.265Z,9.90
2018-10-18T14:56:42.460Z,11.03
2018-10-18T14:59:12.119Z,9.70
2018-10-18T15:01:42.056Z,9.77
2018-10-18T15:04:13.788Z,9.97
2018-10-18T15:06:43.493Z,8.87
2018-10-18T15:09:13.243Z,9.07
2018-10-18T15:11:42.952Z,9.50
2018-10-18T15:14:12.711Z,8.97
2018-10-18T15:16:42.748Z,9.07
2018-10-18T15:19:12.460Z,9.40
2018-10-18T15:21:42.424Z,9.93
2018-10-18T15:24:12.056Z,10.20
2018-10-18T15:26:41.904Z,10.00
2018-10-18T15:29:11.490Z,9.57
2018-10-18T15:31:41.902Z,10.20
2018-10-18T15:34:11.787Z,9.80
2018-10-18T15:36:41.467Z,10.80
2018-10-18T15:39:12.559Z,10.53
2018-10-18T15:41:42.284Z,10.57
2018-10-18T15:44:12.568Z,10.57
2018-10-18T15:46:42.379Z,10.67
2018-10-18T15:49:12.202Z,11.13
2018-10-18T15:51:41.899Z,8.43
2018-10-18T15:54:11.646Z,8.47
2018-10-18T15:56:41.203Z,7.90
2018-10-18T15:59:10.925Z,7.87
2018-10-18T16:01:40.583Z,7.70
2018-10-18T16:04:10.333Z,7.57
2018-10-18T16:06:40.026Z,7.43
2018-10-18T16:09:11.899Z,7.70
2018-10-18T16:11:41.742Z,7.63
2018-10-18T16:14:11.477Z,8.13
2018-10-18T16:16:41.172Z,8.60
2018-10-18T16:19:10.832Z,7.43
2018-10-18T16:21:40.592Z,6.97
2018-10-18T16:24:10.370Z,8.43
2018-10-18T16:26:40.299Z,8.17
2018-10-18T16:29:10.046Z,8.63
2018-10-18T16:31:39.665Z,7.57
2018-10-18T16:34:09.403Z,8.27
2018-10-18T16:36:39.118Z,6.93
2018-10-18T16:39:10.908Z,7.00
2018-10-18T16:41:40.625Z,6.43
2018-10-18T16:44:10.599Z,5.43
2018-10-18T16:46:40.252Z,5.83
2018-10-18T16:49:09.921Z,4.97
2018-10-18T16:51:39.555Z,4.83
2018-10-18T16:54:09.424Z,4.43
2018-10-18T16:56:38.979Z,4.80
2018-10-18T16:59:08.597Z,4.43
2018-10-18T17:01:38.518Z,4.47
2018-10-18T17:04:08.250Z,4.90
2018-10-18T17:06:37.871Z,4.80
2018-10-18T17:09:09.326Z,5.00
2018-10-18T17:11:39.370Z,4.90
2018-10-18T17:14:08.943Z,4.63
2018-10-18T17:16:38.997Z,5.67
2018-10-18T17:19:08.776Z,5.40
2018-10-18T17:21:38.529Z,5.43
2018-10-18T17:24:08.264Z,5.53
2018-10-18T17:26:37.919Z,6.17
2018-10-18T17:29:07.455Z,5.70
2018-10-18T17:31:37.071Z,5.90
2018-10-18T17:34:06.935Z,5.77
2018-10-18T17:36:36.984Z,5.63
2018-10-18T17:39:09.021Z,5.67
2018-10-18T17:41:38.779Z,5.60
2018-10-18T17:44:09.421Z,6.37
2018-10-18T17:46:39.454Z,6.23
2018-10-18T17:49:09.325Z,5.50
2018-10-18T17:51:39.013Z,6.70
2018-10-18T17:54:08.929Z,6.03
2018-10-18T17:56:38.489Z,6.40
2018-10-18T17:59:08.243Z,6.43
2018-10-18T18:01:37.854Z,7.13
2018-10-18T18:04:07.961Z,6.20
2018-10-18T18:06:38.191Z,5.80
2018-10-18T18:09:09.694Z,6.17
2018-10-18T18:11:40.350Z,5.87
2018-10-18T18:14:11.919Z,6.10
2018-10-18T18:16:42.356Z,6.40
2018-10-18T18:19:12.505Z,5.97
2018-10-18T18:21:42.484Z,6.87
2018-10-18T18:24:14.497Z,6.80
2018-10-18T18:26:45.410Z,6.10
2018-10-18T18:29:15.054Z,6.43
2018-10-18T18:31:45.011Z,6.70
2018-10-18T18:34:15.261Z,6.07
2018-10-18T18:36:45.272Z,6.80
2018-10-18T18:39:15.027Z,7.50
2018-10-18T18:41:45.468Z,6.30
2018-10-18T18:44:15.978Z,6.13
2018-10-18T18:46:45.690Z,7.13
2018-10-18T18:49:15.374Z,6.77
2018-10-18T18:51:45.350Z,6.70
2018-10-18T18:54:15.010Z,6.30
2018-10-18T18:56:45.511Z,6.20
2018-10-18T18:59:15.871Z,6.63
2018-10-18T19:01:45.814Z,6.43
2018-10-18T19:04:15.818Z,6.83
2018-10-18T19:06:46.301Z,6.30
2018-10-18T19:09:16.312Z,7.33
2018-10-18T19:11:47.286Z,6.40
2018-10-18T19:14:17.106Z,6.33
2018-10-18T19:16:47.347Z,5.90
2018-10-18T19:19:17.456Z,6.47
2018-10-18T19:21:51.714Z,7.00
2018-10-18T19:24:21.872Z,6.37
2018-10-18T19:26:51.649Z,6.63
2018-10-18T19:29:21.897Z,6.67
2018-10-18T19:31:52.449Z,7.07
2018-10-18T19:34:22.321Z,6.90
2018-10-18T19:36:52.039Z,6.77
2018-10-18T19:39:22.303Z,6.63
2018-10-18T19:41:53.673Z,7.30
2018-10-18T19:44:24.057Z,6.80
2018-10-18T19:46:53.686Z,7.23
2018-10-18T19:49:24.307Z,7.90
2018-10-18T19:51:54.139Z,7.50
2018-10-18T19:54:24.008Z,8.23
2018-10-18T19:56:54.098Z,8.30
2018-10-18T19:59:24.168Z,8.60
2018-10-18T20:01:53.882Z,7.77
2018-10-18T20:04:23.506Z,9.20
2018-10-18T20:06:53.126Z,9.47
2018-10-18T20:09:22.722Z,7.97
2018-10-18T20:11:52.451Z,8.50
2018-10-18T20:14:22.065Z,8.23
2018-10-18T20:16:51.623Z,8.50
2018-10-18T20:19:21.236Z,8.23
2018-10-18T20:21:50.893Z,9.10
2018-10-18T20:24:20.751Z,8.00
2018-10-18T20:26:50.448Z,7.73
2018-10-18T20:29:20.259Z,8.00
2018-10-18T20:31:49.861Z,7.80
2018-10-18T20:34:19.932Z,7.73
2018-10-18T20:36:49.521Z,7.70
2018-10-18T20:39:19.207Z,7.43
2018-10-18T20:41:49.544Z,8.20
2018-10-18T20:44:19.392Z,7.63
2018-10-18T20:46:49.100Z,7.67
2018-10-18T20:49:18.974Z,6.57
2018-10-18T20:51:48.886Z,7.10
2018-10-18T20:54:18.796Z,7.17
2018-10-18T20:56:50.092Z,7.43
2018-10-18T20:59:19.830Z,8.77
2018-10-18T21:01:49.811Z,6.80
2018-10-18T21:04:19.472Z,6.83
2018-10-18T21:06:49.359Z,7.73
2018-10-18T21:09:19.063Z,6.80
2018-10-18T21:11:48.646Z,6.77
2018-10-18T21:14:18.215Z,6.60
2018-10-18T21:16:48.119Z,6.83
2018-10-18T21:19:18.134Z,6.93
2018-10-18T21:21:47.833Z,7.10
2018-10-18T21:24:17.465Z,6.50
2018-10-18T21:26:47.089Z,6.63
2018-10-18T21:29:16.770Z,7.03
2018-10-18T21:31:46.549Z,6.70
2018-10-18T21:34:16.503Z,6.67
2018-10-18T21:36:52.480Z,6.53
2018-10-18T21:39:27.360Z,7.20
2018-10-18T21:41:57.273Z,7.40
2018-10-18T21:44:28.785Z,6.80
2018-10-18T21:46:58.477Z,6.57
2018-10-18T21:49:28.860Z,7.10
2018-10-18T21:51:58.480Z,6.43
2018-10-18T21:54:28.468Z,7.37
2018-10-18T21:56:58.670Z,7.60
2018-10-18T21:59:28.811Z,6.57
2018-10-18T22:01:58.377Z,8.27
2018-10-18T22:04:28.439Z,7.57
2018-10-18T22:06:58.039Z,7.07
2018-10-18T22:09:27.796Z,6.87
2018-10-18T22:11:57.390Z,7.70
2018-10-18T22:14:27.066Z,7.27
2018-10-18T22:16:56.641Z,8.53
2018-10-18T22:19:26.662Z,7.73
2018-10-18T22:21:56.259Z,8.70
2018-10-18T22:24:25.870Z,7.17
2018-10-18T22:26:55.467Z,7.53
2018-10-18T22:29:25.263Z,7.53
2018-10-18T22:31:54.922Z,7.50
2018-10-18T22:34:24.775Z,7.13
2018-10-18T22:36:54.343Z,6.33
2018-10-18T22:39:23.969Z,7.40
2018-10-18T22:41:53.516Z,6.43
2018-10-18T22:44:23.109Z,6.50
2018-10-18T22:46:52.724Z,6.70
2018-10-18T22:49:22.502Z,7.70
2018-10-18T22:51:52.067Z,6.97
2018-10-18T22:54:21.602Z,8.33
2018-10-18T22:56:51.187Z,7.20
2018-10-18T22:59:20.771Z,7.40
2018-10-18T23:01:50.429Z,7.77
2018-10-18T23:04:20.103Z,8.57
2018-10-18T23:06:49.747Z,7.60
2018-10-18T23:09:19.684Z,7.50
2018-10-18T23:11:49.317Z,7.10
2018-10-18T23:14:18.964Z,7.00
2018-10-18T23:16:48.533Z,7.07
2018-10-18T23:19:18.419Z,7.70
2018-10-18T23:21:48.228Z,7.20
2018-10-18T23:24:18.227Z,8.13
2018-10-18T23:26:47.858Z,6.83
2018-10-18T23:29:17.446Z,7.47
2018-10-18T23:31:47.084Z,8.47
2018-10-18T23:34:16.627Z,7.67
2018-10-18T23:36:46.275Z,7.93
2018-10-18T23:39:15.924Z,7.90
2018-10-18T23:41:45.486Z,8.70
2018-10-18T23:44:15.064Z,8.50
2018-10-18T23:46:44.618Z,8.17
2018-10-18T23:49:14.410Z,8.73
2018-10-18T23:51:43.958Z,8.00
2018-10-18T23:54:13.563Z,8.57
2018-10-18T23:56:43.161Z,8.47
2018-10-18T23:59:12.816Z,8.17
